Time;durP1;ratioP1;P1;durP2;ratioP2;P2;SDS_P1;SDS_P2;PMS_P1;PMS_P2;Temp;Humidity;BMP_temperature;BMP_pressure;BME280_temperature;BME280_humidity;BME280_pressure;Samples;Min_cycle;Max_cycle;Signal;HPM_P1;HPM_P2
2021/12/12 00:01:25;;;;;;;12.27;5.20;;;3.80;93.00;;;;;;5033726;28;20738;-84
2021/12/12 00:04:09;;;;;;;14.67;4.93;;;3.80;92.90;;;;;;5018326;28;20516;-85
2021/12/12 00:06:47;;;;;;;10.97;5.10;;;3.90;93.00;;;;;;5018745;28;20424;-85
2021/12/12 00:09:27;;;;;;;8.83;4.30;;;3.80;92.80;;;;;;5021934;28;20445;-85
2021/12/12 00:12:03;;;;;;;10.47;5.50;;;3.80;92.80;;;;;;5013549;28;20450;-84
2021/12/12 00:14:35;;;;;;;11.57;5.07;;;3.80;92.70;;;;;;5045765;28;20456;-85
2021/12/12 00:17:07;;;;;;;9.00;4.70;;;3.80;92.80;;;;;;5032456;28;20418;-84
2021/12/12 00:19:35;;;;;;;14.23;4.57;;;3.80;92.90;;;;;;5017005;28;20449;-84
2021/12/12 00:22:10;;;;;;;6.90;3.80;;;3.80;92.90;;;;;;5037513;28;20418;-82
2021/12/12 00:24:40;;;;;;;8.80;3.97;;;3.80;92.90;;;;;;5040064;28;20433;-86
2021/12/12 00:27:15;;;;;;;8.13;4.30;;;3.80;92.90;;;;;;5033623;28;20410;-85
2021/12/12 00:29:42;;;;;;;24.80;10.83;;;3.80;93.00;;;;;;5025724;28;20992;-85
2021/12/12 00:32:26;;;;;;;9.67;4.80;;;3.80;93.00;;;;;;5043448;28;20412;-86
2021/12/12 00:35:00;;;;;;;9.40;3.90;;;3.80;93.00;;;;;;5029492;28;20418;-83
2021/12/12 00:37:34;;;;;;;40.90;20.93;;;3.80;93.00;;;;;;5012869;28;20814;-83
2021/12/12 00:40:30;;;;;;;6.43;4.27;;;3.80;93.00;;;;;;5028961;28;20436;-84
2021/12/12 00:43:00;;;;;;;6.40;3.50;;;3.80;93.00;;;;;;5025614;28;20410;-83
2021/12/12 00:45:27;;;;;;;7.47;3.67;;;3.90;93.00;;;;;;5006288;28;20436;-85
2021/12/12 00:47:57;;;;;;;6.47;3.23;;;3.90;93.00;;;;;;5023499;28;20432;-84
2021/12/12 00:50:34;;;;;;;30.10;13.83;;;3.90;92.90;;;;;;5005838;28;20441;-83
2021/12/12 00:53:01;;;;;;;12.23;3.63;;;3.90;92.90;;;;;;5014036;28;20463;-83
2021/12/12 00:55:30;;;;;;;7.70;3.50;;;4.00;92.90;;;;;;5008961;28;20448;-83
2021/12/12 00:57:56;;;;;;;6.47;3.37;;;4.00;92.80;;;;;;5008848;28;20417;-83
2021/12/12 01:00:30;;;;;;;8.73;3.47;;;3.90;92.80;;;;;;5008250;28;20540;-83
2021/12/12 01:03:05;;;;;;;7.87;3.80;;;4.00;92.90;;;;;;5025688;28;20424;-83
2021/12/12 01:05:31;;;;;;;14.53;3.80;;;4.00;92.90;;;;;;5009733;28;20478;-83
2021/12/12 01:07:57;;;;;;;7.77;3.40;;;4.00;92.90;;;;;;5048380;28;20452;-82
2021/12/12 01:10:40;;;;;;;7.83;3.20;;;4.00;93.30;;;;;;5028801;28;20501;-77
2021/12/12 01:13:07;;;;;;;7.83;3.47;;;4.00;92.90;;;;;;5031797;28;20512;-77
2021/12/12 01:15:48;;;;;;;6.67;3.63;;;4.00;92.90;;;;;;5036034;28;20421;-78
2021/12/12 01:18:18;;;;;;;8.10;3.20;;;4.00;92.90;;;;;;5017173;28;20417;-77
2021/12/12 01:20:53;;;;;;;6.57;3.20;;;4.00;93.00;;;;;;5035369;28;20437;-78
2021/12/12 01:23:29;;;;;;;5.77;3.73;;;4.00;92.90;;;;;;4999999;28;20511;-78
2021/12/12 01:25:56;;;;;;;6.83;2.90;;;4.00;92.90;;;;;;5036834;28;20524;-78
2021/12/12 01:28:28;;;;;;;8.70;3.10;;;4.00;92.90;;;;;;5035196;28;20447;-78
2021/12/12 01:30:58;;;;;;;6.63;3.30;;;4.00;92.90;;;;;;5018570;28;20429;-77
2021/12/12 01:33:34;;;;;;;8.37;3.93;;;4.00;93.00;;;;;;5023317;28;21033;-78
2021/12/12 01:36:25;;;;;;;6.67;3.63;;;4.00;93.00;;;;;;5027574;28;20503;-77
2021/12/12 01:38:53;;;;;;;7.90;3.10;;;4.00;93.00;;;;;;5045773;28;20515;-78
2021/12/12 01:41:36;;;;;;;11.27;3.90;;;4.00;93.00;;;;;;5026209;28;20496;-78
2021/12/12 01:44:13;;;;;;;7.97;3.50;;;4.00;93.00;;;;;;5041871;28;20507;-77
2021/12/12 01:46:46;;;;;;;10.90;3.40;;;4.00;92.90;;;;;;4999272;28;20429;-77
2021/12/12 01:49:21;;;;;;;10.33;2.93;;;4.00;93.00;;;;;;5017035;28;20444;-77
2021/12/12 01:51:49;;;;;;;8.80;3.67;;;4.00;93.40;;;;;;5016376;28;20464;-77
2021/12/12 01:54:22;;;;;;;6.70;2.47;;;4.00;93.10;;;;;;5023083;28;20545;-77
2021/12/12 01:56:54;;;;;;;7.17;2.90;;;3.90;93.10;;;;;;5041485;28;20413;-76
2021/12/12 01:59:28;;;;;;;8.10;3.83;;;3.90;93.20;;;;;;5017682;28;20440;-77
2021/12/12 02:02:04;;;;;;;7.97;3.50;;;3.90;93.30;;;;;;5032545;28;20420;-77
2021/12/12 02:04:37;;;;;;;5.67;3.20;;;3.90;93.20;;;;;;5018183;28;20463;-77
2021/12/12 02:07:05;;;;;;;8.30;3.33;;;3.90;93.20;;;;;;5035046;28;20602;-77
2021/12/12 02:09:31;;;;;;;6.90;3.20;;;3.90;93.30;;;;;;5033432;28;20538;-77
2021/12/12 02:12:00;;;;;;;8.57;3.20;;;3.90;93.30;;;;;;5033578;28;20413;-77
2021/12/12 02:14:28;;;;;;;7.50;3.47;;;3.90;93.20;;;;;;5029388;28;20951;-79
2021/12/12 02:17:25;;;;;;;5.70;3.20;;;3.90;93.20;;;;;;5035222;28;20991;-77
2021/12/12 02:20:06;;;;;;;5.53;2.70;;;4.00;93.20;;;;;;5012117;28;20485;-78
2021/12/12 02:36:10;;;;;;;8.20;3.83;;;4.00;92.90;;;;;;5031600;28;20472;-77
2021/12/12 02:38:36;;;;;;;8.13;3.90;;;4.00;92.90;;;;;;5015583;28;20436;-77
2021/12/12 02:41:07;;;;;;;6.57;3.27;;;4.00;92.90;;;;;;5035184;28;20435;-77
2021/12/12 02:43:37;;;;;;;6.00;3.17;;;4.00;92.90;;;;;;5017000;28;20436;-78
2021/12/12 02:46:04;;;;;;;9.37;3.73;;;4.00;92.90;;;;;;5016427;28;20937;-76
2021/12/12 02:48:33;;;;;;;5.60;3.27;;;4.00;93.00;;;;;;5010171;28;20440;-77
2021/12/12 02:51:04;;;;;;;8.77;3.77;;;4.00;93.10;;;;;;5015475;28;20939;-77
2021/12/12 02:53:38;;;;;;;5.23;2.83;;;4.10;93.10;;;;;;5015059;28;20487;-79
2021/12/12 02:56:09;;;;;;;8.90;3.80;;;4.10;93.10;;;;;;5033740;28;20421;-77
2021/12/12 02:58:35;;;;;;;13.67;5.57;;;4.10;93.10;;;;;;5038111;28;20428;-77
2021/12/12 03:01:12;;;;;;;11.10;4.03;;;4.10;93.10;;;;;;5037524;28;21214;-80
2021/12/12 03:03:40;;;;;;;6.37;3.80;;;4.10;93.00;;;;;;5024857;28;20442;-77
2021/12/12 03:06:09;;;;;;;10.90;3.60;;;4.20;93.10;;;;;;5017571;28;20458;-76
2021/12/12 03:08:38;;;;;;;10.20;3.00;;;4.20;93.00;;;;;;5029290;28;20813;-78
2021/12/12 03:11:04;;;;;;;8.47;3.17;;;4.20;93.00;;;;;;5039476;28;20409;-77
2021/12/12 03:13:30;;;;;;;6.00;3.43;;;4.20;93.10;;;;;;5017674;28;20466;-76
2021/12/12 03:15:56;;;;;;;7.50;3.17;;;4.20;93.00;;;;;;5035344;28;20504;-77
2021/12/12 03:18:30;;;;;;;6.57;2.93;;;4.20;93.00;;;;;;5039347;28;20428;-78
2021/12/12 03:21:02;;;;;;;5.70;2.97;;;4.20;92.90;;;;;;5038922;28;20760;-78
2021/12/12 03:23:33;;;;;;;7.80;4.00;;;4.30;92.90;;;;;;5026341;28;20423;-77
2021/12/12 03:26:04;;;;;;;7.00;3.63;;;4.30;92.90;;;;;;5037643;28;20436;-78
2021/12/12 03:28:33;;;;;;;5.93;3.57;;;4.30;92.90;;;;;;5037244;28;20789;-77
2021/12/12 03:31:03;;;;;;;11.80;3.30;;;4.30;92.90;;;;;;5020972;28;20516;-77
2021/12/12 03:33:32;;;;;;;9.40;4.03;;;4.30;93.20;;;;;;5044650;28;20464;-76
2021/12/12 03:36:00;;;;;;;10.13;4.00;;;4.30;92.90;;;;;;5047299;28;20421;-77
2021/12/12 03:38:30;;;;;;;14.20;3.60;;;4.30;92.90;;;;;;5047409;28;20413;-77
2021/12/12 03:41:03;;;;;;;9.47;2.97;;;4.30;92.90;;;;;;5018358;28;20483;-77
2021/12/12 03:43:28;;;;;;;5.20;3.23;;;4.30;92.90;;;;;;5014845;28;20414;-76
2021/12/12 03:45:56;;;;;;;8.50;3.27;;;4.30;92.80;;;;;;5016005;28;20855;-77
2021/12/12 03:48:30;;;;;;;14.93;3.60;;;4.40;92.90;;;;;;4999934;28;20190;-76
2021/12/12 03:50:59;;;;;;;9.57;3.60;;;4.30;92.90;;;;;;5036802;28;20452;-77
2021/12/12 03:53:26;;;;;;;5.90;3.30;;;4.40;93.00;;;;;;5020470;28;20457;-77
2021/12/12 03:55:52;;;;;;;15.37;3.70;;;4.40;93.00;;;;;;5038016;28;20436;-77
2021/12/12 03:58:18;;;;;;;8.20;4.23;;;4.40;93.00;;;;;;5038659;28;20405;-77
2021/12/12 04:01:06;;;;;;;13.37;4.43;;;4.40;93.00;;;;;;5038112;28;20449;-77
2021/12/12 04:03:32;;;;;;;12.00;3.50;;;4.40;93.00;;;;;;5038192;28;20508;-77
2021/12/12 04:06:04;;;;;;;4.60;3.43;;;4.40;93.00;;;;;;5036626;28;20437;-76
2021/12/12 04:08:36;;;;;;;6.80;3.50;;;4.40;93.00;;;;;;5016838;28;20771;-76
2021/12/12 04:11:05;;;;;;;7.37;3.20;;;4.50;93.10;;;;;;5014610;28;20516;-77
2021/12/12 04:13:31;;;;;;;6.00;2.80;;;4.50;93.10;;;;;;5016199;28;20493;-76
2021/12/12 04:15:57;;;;;;;8.80;3.30;;;4.50;93.10;;;;;;4997904;28;20493;-77
2021/12/12 04:18:27;;;;;;;7.17;3.40;;;4.50;93.20;;;;;;5015785;28;20163;-77
2021/12/12 04:20:54;;;;;;;7.90;4.10;;;4.50;93.20;;;;;;4998085;28;20428;-77
2021/12/12 04:23:24;;;;;;;8.27;3.90;;;4.60;93.30;;;;;;4997616;28;20859;-77
2021/12/12 04:25:50;;;;;;;12.83;3.60;;;4.60;93.30;;;;;;5033901;28;20436;-77
2021/12/12 04:28:17;;;;;;;5.20;3.17;;;4.60;93.30;;;;;;5041114;28;20413;-76
2021/12/12 04:30:44;;;;;;;10.87;4.53;;;4.60;93.40;;;;;;5037422;28;20433;-77
2021/12/12 04:33:11;;;;;;;9.20;4.20;;;4.60;93.60;;;;;;5032530;28;20455;-77
2021/12/12 04:35:37;;;;;;;13.63;3.57;;;4.60;93.60;;;;;;5034664;28;20861;-77
2021/12/12 04:38:04;;;;;;;13.50;3.80;;;4.60;93.80;;;;;;5015212;28;20181;-77
2021/12/12 04:40:32;;;;;;;10.63;3.60;;;4.60;93.90;;;;;;5015155;28;20482;-77
2021/12/12 04:42:59;;;;;;;13.00;4.03;;;4.60;94.10;;;;;;5033142;28;20444;-76
2021/12/12 04:45:41;;;;;;;7.80;3.33;;;4.60;94.30;;;;;;5015209;28;20475;-77
2021/12/12 04:51:25;;;;;;;6.77;3.67;;;4.60;94.40;;;;;;5032704;28;20523;-77
2021/12/12 04:54:15;;;;;;;6.20;3.70;;;4.60;94.70;;;;;;5014815;28;20822;-77
2021/12/12 04:56:55;;;;;;;11.63;3.73;;;4.60;94.80;;;;;;5033147;28;20428;-77
2021/12/12 04:59:45;;;;;;;8.87;3.73;;;4.60;94.90;;;;;;5032779;28;20428;-77
2021/12/12 05:02:37;;;;;;;10.93;4.03;;;4.60;95.10;;;;;;5032392;28;20429;-77
2021/12/12 05:05:36;;;;;;;13.73;4.67;;;4.60;95.40;;;;;;5032177;28;20962;-77
2021/12/12 05:08:11;;;;;;;8.00;3.77;;;4.60;95.40;;;;;;5014621;28;20424;-77
2021/12/12 05:10:41;;;;;;;11.23;4.73;;;4.60;95.60;;;;;;5056102;22;20574;-72
2021/12/12 05:13:40;;;;;;;19.50;4.87;;;4.60;95.70;;;;;;5034816;28;20453;-72
2021/12/12 05:16:22;;;;;;;9.10;4.27;;;4.60;95.80;;;;;;5028710;28;20429;-71
2021/12/12 05:18:51;;;;;;;8.63;4.00;;;4.60;96.00;;;;;;5037072;28;20426;-71
2021/12/12 05:21:25;;;;;;;9.00;4.47;;;4.60;96.10;;;;;;5020457;28;20484;-72
2021/12/12 05:23:55;;;;;;;6.80;3.50;;;4.60;96.20;;;;;;5018386;28;21029;-72
2021/12/12 05:26:27;;;;;;;12.63;4.60;;;4.60;96.40;;;;;;5017272;28;20433;-72
2021/12/12 05:29:01;;;;;;;12.73;4.17;;;4.60;96.60;;;;;;5016918;28;20417;-72
2021/12/12 05:31:28;;;;;;;9.10;4.73;;;4.60;97.10;;;;;;5013387;28;20458;-73
2021/12/12 05:33:55;;;;;;;10.73;4.30;;;4.50;97.10;;;;;;5015803;28;20666;-72
2021/12/12 05:36:21;;;;;;;14.00;4.10;;;4.50;97.50;;;;;;5015848;28;20538;-73
2021/12/12 05:38:48;;;;;;;9.10;4.00;;;4.50;97.60;;;;;;5005085;28;21117;-72
2021/12/12 05:41:18;;;;;;;7.70;4.00;;;4.50;98.00;;;;;;5007583;28;20438;-71
2021/12/12 05:43:46;;;;;;;9.20;4.20;;;4.50;98.10;;;;;;5020298;28;20437;-73
2021/12/12 05:46:18;;;;;;;12.80;4.80;;;4.50;98.40;;;;;;5017778;28;20409;-72
2021/12/12 05:48:44;;;;;;;10.97;4.63;;;4.50;98.60;;;;;;5030053;28;20458;-72
2021/12/12 05:51:12;;;;;;;10.03;3.80;;;4.40;98.70;;;;;;4982257;28;20445;-72
2021/12/12 05:53:38;;;;;;;15.37;4.40;;;4.50;99.00;;;;;;5002551;28;20815;-72
2021/12/12 05:56:06;;;;;;;15.87;5.10;;;4.40;99.20;;;;;;5016620;28;20467;-71
2021/12/12 05:58:32;;;;;;;9.23;5.43;;;4.40;99.50;;;;;;5014300;28;20680;-72
2021/12/12 06:01:05;;;;;;;7.27;4.10;;;4.40;99.60;;;;;;5015037;28;20422;-73
2021/12/12 06:03:37;;;;;;;8.77;4.47;;;4.40;99.70;;;;;;5018533;28;20425;-72
2021/12/12 06:06:06;;;;;;;15.40;4.70;;;4.40;99.70;;;;;;5034671;28;20409;-74
2021/12/12 06:08:33;;;;;;;8.77;4.70;;;4.40;99.90;;;;;;4991495;28;20931;-72
2021/12/12 06:10:59;;;;;;;7.50;5.00;;;4.40;99.90;;;;;;4996688;28;20489;-73
2021/12/12 06:13:26;;;;;;;11.87;4.50;;;4.40;99.90;;;;;;5014546;28;20462;-71
2021/12/12 06:15:54;;;;;;;13.03;5.00;;;4.40;99.90;;;;;;5015814;28;20397;-74
2021/12/12 06:18:25;;;;;;;15.33;4.13;;;4.40;99.90;;;;;;5034665;28;20482;-72
2021/12/12 06:20:52;;;;;;;9.03;4.40;;;4.40;99.90;;;;;;5032612;28;20483;-71
2021/12/12 06:23:19;;;;;;;13.40;4.67;;;4.40;99.90;;;;;;5032807;28;20450;-72
2021/12/12 06:25:46;;;;;;;7.67;4.57;;;4.40;99.90;;;;;;5032937;28;20544;-72
2021/12/12 06:28:16;;;;;;;12.73;5.50;;;4.40;99.90;;;;;;5018255;28;20429;-73
2021/12/12 06:30:42;;;;;;;13.07;5.43;;;4.40;99.90;;;;;;5013494;28;20480;-71
2021/12/12 06:33:10;;;;;;;9.73;5.07;;;4.40;99.90;;;;;;5032823;28;20448;-72
2021/12/12 06:35:36;;;;;;;7.37;4.53;;;4.40;99.90;;;;;;5032477;28;20431;-72
2021/12/12 06:38:05;;;;;;;10.53;5.23;;;4.40;99.90;;;;;;5015875;28;20786;-71
2021/12/12 06:40:32;;;;;;;9.00;5.20;;;4.40;99.90;;;;;;5009174;28;20500;-72
2021/12/12 06:43:04;;;;;;;8.70;4.57;;;4.40;99.90;;;;;;4996544;28;20425;-72
2021/12/12 06:45:31;;;;;;;8.67;4.87;;;4.40;99.90;;;;;;5014140;28;20445;-72
2021/12/12 06:47:57;;;;;;;11.13;5.43;;;4.50;99.90;;;;;;5016824;28;20424;-74
2021/12/12 06:50:25;;;;;;;11.10;5.03;;;4.40;99.90;;;;;;5015857;28;20498;-73
2021/12/12 06:52:51;;;;;;;12.07;5.63;;;4.50;99.90;;;;;;5012928;28;20664;-71
2021/12/12 06:55:18;;;;;;;14.17;4.77;;;4.50;99.90;;;;;;4997486;28;20432;-72
2021/12/12 06:57:44;;;;;;;7.60;4.80;;;4.50;99.90;;;;;;5014012;28;20872;-72
2021/12/12 07:00:14;;;;;;;11.07;5.03;;;4.60;99.90;;;;;;5015319;28;20444;-72
2021/12/12 07:02:42;;;;;;;12.27;5.10;;;4.60;99.90;;;;;;5028547;28;20649;-73
2021/12/12 07:05:13;;;;;;;18.20;5.40;;;4.60;99.90;;;;;;4996732;28;20490;-72
2021/12/12 07:07:39;;;;;;;8.60;4.40;;;4.60;99.90;;;;;;5000941;28;20424;-72
2021/12/12 07:10:07;;;;;;;11.53;4.50;;;4.60;99.90;;;;;;5033269;28;20471;-72
2021/12/12 07:12:34;;;;;;;14.70;5.47;;;4.60;99.90;;;;;;5010785;28;20742;-72
2021/12/12 07:15:02;;;;;;;9.10;5.13;;;4.70;99.90;;;;;;5014737;28;20501;-73
2021/12/12 07:17:28;;;;;;;11.00;5.20;;;4.70;99.90;;;;;;5000309;28;20429;-74
2021/12/12 07:19:55;;;;;;;6.77;3.83;;;4.70;99.90;;;;;;5035544;28;20982;-73
2021/12/12 07:22:21;;;;;;;15.80;4.73;;;4.70;99.90;;;;;;5032010;28;20411;-72
2021/12/12 07:24:48;;;;;;;7.77;4.10;;;4.70;99.90;;;;;;5014783;28;20406;-72
2021/12/12 07:27:15;;;;;;;11.60;4.50;;;4.70;99.90;;;;;;5015873;28;20431;-72
2021/12/12 07:29:41;;;;;;;9.73;5.20;;;4.80;99.90;;;;;;5034039;28;20424;-74
2021/12/12 07:32:08;;;;;;;10.37;4.60;;;4.80;99.90;;;;;;5031413;28;20842;-73
2021/12/12 07:34:35;;;;;;;8.13;4.37;;;4.80;99.90;;;;;;5025435;28;20447;-71
2021/12/12 07:37:03;;;;;;;9.47;4.30;;;4.80;99.90;;;;;;5027518;28;20524;-72
2021/12/12 07:39:31;;;;;;;13.23;3.53;;;4.90;99.90;;;;;;5029668;28;20943;-73
2021/12/12 07:41:59;;;;;;;12.00;5.10;;;4.90;99.90;;;;;;5022232;28;20448;-71
2021/12/12 07:44:28;;;;;;;8.23;3.90;;;4.90;99.90;;;;;;5027120;28;20913;-73
2021/12/12 07:46:54;;;;;;;7.50;3.60;;;4.90;99.90;;;;;;5020025;28;20514;-71
2021/12/12 07:49:32;;;;;;;9.53;4.60;;;4.90;99.90;;;;;;5024179;28;20733;-73
2021/12/12 07:52:00;;;;;;;13.53;4.47;;;4.90;99.90;;;;;;4998511;28;20501;-72
2021/12/12 07:54:27;;;;;;;7.30;3.73;;;4.90;99.90;;;;;;5021348;28;21051;-72
2021/12/12 07:56:55;;;;;;;10.00;4.63;;;4.90;99.90;;;;;;5031977;28;20720;-71
2021/12/12 07:59:21;;;;;;;13.60;4.80;;;5.00;99.90;;;;;;5033571;28;20417;-70
2021/12/12 08:01:49;;;;;;;5.80;3.90;;;5.00;99.90;;;;;;5020542;28;20426;-72
2021/12/12 08:04:17;;;;;;;8.77;5.07;;;5.00;99.90;;;;;;5017716;28;20579;-71
2021/12/12 08:06:43;;;;;;;5.73;3.63;;;5.00;99.90;;;;;;5014487;28;20430;-73
2021/12/12 08:09:10;;;;;;;7.97;3.37;;;5.00;99.90;;;;;;5018755;28;20472;-71
2021/12/12 08:11:39;;;;;;;12.40;5.10;;;5.10;99.90;;;;;;4997283;28;20454;-70
2021/12/12 08:14:10;;;;;;;9.07;4.80;;;5.10;99.90;;;;;;5014581;28;20553;-69
2021/12/12 08:16:37;;;;;;;6.00;3.70;;;5.10;99.90;;;;;;5027410;28;20461;-71
2021/12/12 08:19:03;;;;;;;7.70;4.50;;;5.10;99.90;;;;;;5028687;28;20440;-71
2021/12/12 08:21:33;;;;;;;8.70;3.70;;;5.10;99.90;;;;;;5033313;28;20807;-70
2021/12/12 08:24:05;;;;;;;9.13;4.00;;;5.10;99.90;;;;;;5013923;28;20442;-70
2021/12/12 08:26:33;;;;;;;9.27;4.53;;;5.20;99.90;;;;;;5026473;28;20448;-71
2021/12/12 08:28:59;;;;;;;8.43;3.97;;;5.20;99.90;;;;;;5033086;28;20874;-71
2021/12/12 08:31:26;;;;;;;7.77;5.23;;;5.20;99.90;;;;;;5032679;28;20433;-71
2021/12/12 08:33:52;;;;;;;8.27;3.83;;;5.20;99.90;;;;;;5013759;28;20952;-70
2021/12/12 08:36:18;;;;;;;9.53;4.10;;;5.30;99.90;;;;;;4997231;28;20479;-69
2021/12/12 08:38:44;;;;;;;5.73;3.60;;;5.30;99.90;;;;;;4995479;28;20413;-72
2021/12/12 08:41:10;;;;;;;8.37;4.00;;;5.30;99.90;;;;;;5013915;28;20441;-71
2021/12/12 08:43:37;;;;;;;6.70;3.93;;;5.30;99.90;;;;;;5001466;28;20194;-70
2021/12/12 08:46:09;;;;;;;10.20;2.97;;;5.30;99.90;;;;;;5011253;28;20524;-69
2021/12/12 08:48:40;;;;;;;9.60;3.90;;;5.40;99.90;;;;;;5013059;28;20412;-69
2021/12/12 08:51:11;;;;;;;4.30;2.90;;;5.40;99.90;;;;;;5015183;28;20767;-71
2021/12/12 08:53:37;;;;;;;8.90;3.23;;;5.40;99.90;;;;;;5032227;28;20448;-70
2021/12/12 08:56:05;;;;;;;4.47;3.03;;;5.40;99.90;;;;;;5010808;28;20434;-71
2021/12/12 08:58:33;;;;;;;8.20;3.67;;;5.40;99.90;;;;;;5020974;28;20434;-75
2021/12/12 09:01:12;;;;;;;9.37;3.57;;;5.40;99.90;;;;;;5021662;28;20453;-70
2021/12/12 09:03:52;;;;;;;5.50;3.83;;;5.50;99.90;;;;;;4995002;28;20418;-70
2021/12/12 09:06:25;;;;;;;5.20;3.47;;;5.50;99.90;;;;;;4994710;28;20429;-70
2021/12/12 09:09:00;;;;;;;4.83;3.33;;;5.50;99.90;;;;;;5023186;28;20495;-71
2021/12/12 09:11:44;;;;;;;4.53;2.60;;;5.60;99.90;;;;;;5031939;28;20895;-71
2021/12/12 09:14:15;;;;;;;4.70;2.20;;;5.60;99.90;;;;;;5032337;28;20448;-71
2021/12/12 09:16:54;;;;;;;5.20;2.80;;;5.60;99.90;;;;;;5013821;28;20578;-70
2021/12/12 09:19:26;;;;;;;9.07;3.07;;;5.70;99.90;;;;;;5032078;28;20409;-69
2021/12/12 09:22:24;;;;;;;4.50;2.77;;;5.70;99.90;;;;;;5031654;28;20404;-71
2021/12/12 09:25:03;;;;;;;5.90;2.87;;;5.70;99.90;;;;;;5032115;28;20409;-71
2021/12/12 09:27:46;;;;;;;6.43;2.60;;;5.80;99.90;;;;;;5031812;28;20756;-71
2021/12/12 09:30:17;;;;;;;7.60;3.47;;;5.80;99.90;;;;;;5031718;28;20437;-69
2021/12/12 09:32:45;;;;;;;5.00;2.73;;;5.90;99.90;;;;;;5013785;28;20993;-72
2021/12/12 09:35:39;;;;;;;4.60;2.70;;;5.90;99.90;;;;;;5032172;28;20408;-72
2021/12/12 09:38:28;;;;;;;8.40;2.93;;;5.90;99.90;;;;;;5022027;28;20903;-71
2021/12/12 09:41:08;;;;;;;5.90;3.33;;;5.90;99.90;;;;;;5032042;28;20779;-72
2021/12/12 09:43:43;;;;;;;9.23;3.57;;;5.90;99.90;;;;;;5013518;28;20409;-71
2021/12/12 09:46:58;;;;;;;5.73;3.17;;;5.90;99.90;;;;;;5014139;28;20424;-70
2021/12/12 09:52:51;;;;;;;12.73;3.53;;;6.00;99.90;;;;;;5034572;28;20451;-71
2021/12/12 09:56:07;;;;;;;4.67;3.27;;;6.00;99.90;;;;;;5013866;28;20463;-71
2021/12/12 09:58:51;;;;;;;4.70;3.17;;;6.10;99.90;;;;;;4972685;28;20409;-70
2021/12/12 10:01:23;;;;;;;10.93;3.13;;;6.10;99.90;;;;;;5031601;28;20436;-69
2021/12/12 10:04:07;;;;;;;4.53;2.60;;;6.10;99.90;;;;;;5014033;28;20496;-71
2021/12/12 10:07:03;;;;;;;7.70;3.07;;;6.20;99.90;;;;;;5012513;28;20562;-71
2021/12/12 10:09:43;;;;;;;2.93;2.20;;;6.20;99.90;;;;;;5014086;28;20424;-70
2021/12/12 10:12:17;;;;;;;4.47;3.17;;;6.20;99.90;;;;;;5031223;28;20417;-71
2021/12/12 10:14:51;;;;;;;3.17;2.70;;;6.20;99.90;;;;;;5013201;28;20424;-71
2021/12/12 10:17:30;;;;;;;10.63;2.50;;;6.20;99.90;;;;;;5031139;28;20409;-70
2021/12/12 10:20:09;;;;;;;5.57;2.83;;;6.20;99.90;;;;;;5013331;28;20926;-71
2021/12/12 10:23:08;;;;;;;4.97;2.03;;;6.30;99.90;;;;;;5030608;28;20444;-72
2021/12/12 10:25:45;;;;;;;3.10;2.17;;;6.30;99.90;;;;;;5013157;28;20444;-70
2021/12/12 10:28:18;;;;;;;2.83;2.20;;;6.30;99.90;;;;;;5031386;28;20401;-72
2021/12/12 10:30:53;;;;;;;4.43;2.30;;;6.40;99.90;;;;;;5030778;28;20436;-71
2021/12/12 10:33:32;;;;;;;4.00;1.83;;;6.40;99.90;;;;;;5013302;28;20476;-71
2021/12/12 10:36:05;;;;;;;7.77;3.00;;;6.40;99.90;;;;;;5030672;28;20424;-69
2021/12/12 10:38:51;;;;;;;3.33;2.10;;;6.40;99.90;;;;;;5013523;28;20410;-71
2021/12/12 10:41:22;;;;;;;4.37;2.50;;;6.40;99.90;;;;;;5031115;28;20495;-72
2021/12/12 10:44:20;;;;;;;5.77;2.90;;;6.50;99.90;;;;;;5030983;28;20409;-71
2021/12/12 10:47:07;;;;;;;4.67;2.73;;;6.50;99.90;;;;;;5012733;28;20479;-68
2021/12/12 10:49:51;;;;;;;5.93;2.50;;;6.50;99.90;;;;;;5030620;28;20429;-70
2021/12/12 10:52:40;;;;;;;5.03;1.90;;;6.50;99.90;;;;;;5030578;28;20863;-71
2021/12/12 10:55:09;;;;;;;3.67;2.20;;;6.60;99.90;;;;;;5012899;28;21017;-69
2021/12/12 10:57:37;;;;;;;4.33;2.23;;;6.60;99.90;;;;;;5030604;28;20879;-70
2021/12/12 11:00:18;;;;;;;4.30;1.90;;;6.60;99.90;;;;;;5030574;28;20425;-70
2021/12/12 11:03:07;;;;;;;3.47;2.17;;;6.60;99.90;;;;;;5030520;28;20786;-71
2021/12/12 11:05:41;;;;;;;4.77;2.40;;;6.70;99.90;;;;;;5015037;28;20439;-71
2021/12/12 11:08:29;;;;;;;2.70;1.73;;;6.70;99.90;;;;;;5014042;28;20746;-71
2021/12/12 11:10:56;;;;;;;4.27;2.00;;;6.70;99.90;;;;;;5048563;22;20481;-81
2021/12/12 11:13:42;;;;;;;3.23;1.90;;;6.70;99.80;;;;;;5020975;28;20801;-82
2021/12/12 11:16:30;;;;;;;2.43;1.70;;;6.80;99.70;;;;;;4987407;28;20429;-82
2021/12/12 11:19:13;;;;;;;4.23;1.50;;;6.80;99.50;;;;;;5025791;28;20409;-81
2021/12/12 11:21:50;;;;;;;3.30;1.70;;;6.90;99.20;;;;;;5008166;28;20430;-82
2021/12/12 11:24:23;;;;;;;1.90;1.50;;;7.00;99.20;;;;;;4972700;28;20437;-83
2021/12/12 11:26:58;;;;;;;4.00;2.27;;;7.00;99.20;;;;;;5006632;28;20513;-84
2021/12/12 11:29:41;;;;;;;11.70;2.00;;;7.10;99.00;;;;;;5005841;28;20414;-80
2021/12/12 11:32:11;;;;;;;2.17;1.30;;;7.10;98.80;;;;;;5005999;28;20784;-81
2021/12/12 11:34:43;;;;;;;3.77;2.20;;;7.10;98.70;;;;;;5009534;28;20458;-82
2021/12/12 11:37:27;;;;;;;3.53;2.70;;;7.20;98.70;;;;;;4993074;28;20437;-83
2021/12/12 11:40:13;;;;;;;3.50;2.20;;;7.20;98.80;;;;;;5017923;28;20471;-81
2021/12/12 11:43:03;;;;;;;3.40;1.80;;;7.20;98.60;;;;;;5018548;28;20410;-80
2021/12/12 11:45:54;;;;;;;2.57;1.60;;;7.20;98.50;;;;;;5020118;28;20491;-81
2021/12/12 11:48:30;;;;;;;2.27;1.70;;;7.30;98.70;;;;;;4984817;28;20415;-81
2021/12/12 11:51:06;;;;;;;3.43;1.93;;;7.30;98.80;;;;;;4985829;28;20450;-81
2021/12/12 11:53:43;;;;;;;3.40;2.17;;;7.30;98.80;;;;;;4986346;28;20472;-81
2021/12/12 11:56:20;;;;;;;4.60;1.97;;;7.40;98.90;;;;;;4985722;28;20773;-81
2021/12/12 11:58:59;;;;;;;3.43;2.07;;;7.40;98.90;;;;;;4970682;28;20808;-82
2021/12/12 12:01:56;;;;;;;4.10;2.27;;;7.40;98.90;;;;;;4992242;28;20457;-82
2021/12/12 12:04:53;;;;;;;3.73;2.20;;;7.50;99.10;;;;;;4992356;28;20422;-80
2021/12/12 12:07:38;;;;;;;3.63;1.97;;;7.50;99.20;;;;;;5014315;28;20482;-81
2021/12/12 12:10:42;;;;;;;4.30;2.70;;;7.50;99.50;;;;;;4990088;28;20442;-81
2021/12/12 12:13:31;;;;;;;3.10;1.83;;;7.50;99.60;;;;;;4946944;28;20469;-82
2021/12/12 12:16:10;;;;;;;4.40;2.43;;;7.50;99.70;;;;;;4988495;28;20415;-80
2021/12/12 12:18:55;;;;;;;3.20;1.83;;;7.50;99.90;;;;;;5006094;28;20410;-81
2021/12/12 12:21:37;;;;;;;3.77;2.13;;;7.50;99.90;;;;;;5007869;28;20442;-81
2021/12/12 12:24:36;;;;;;;4.50;1.70;;;7.50;99.90;;;;;;4974769;28;20426;-81
2021/12/12 12:27:17;;;;;;;4.93;2.33;;;7.50;99.90;;;;;;4970004;28;20419;-82
2021/12/12 12:30:01;;;;;;;2.77;2.10;;;7.40;99.90;;;;;;4983693;28;20453;-83
2021/12/12 12:33:05;;;;;;;3.37;2.73;;;7.40;99.90;;;;;;5002565;28;20411;-81
2021/12/12 12:35:52;;;;;;;3.17;2.20;;;7.40;99.90;;;;;;5003030;28;20398;-82
2021/12/12 12:38:42;;;;;;;3.20;2.17;;;7.40;99.90;;;;;;4984697;28;20430;-81
2021/12/12 12:41:46;;;;;;;2.60;2.03;;;7.40;99.90;;;;;;4986552;28;20437;-82
2021/12/12 12:44:30;;;;;;;4.23;3.00;;;7.40;99.90;;;;;;5007705;28;20413;-81
2021/12/12 12:47:29;;;;;;;3.90;2.53;;;7.40;99.90;;;;;;5009714;28;20415;-82
2021/12/12 12:50:26;;;;;;;4.50;3.47;;;7.40;99.90;;;;;;5009883;28;20434;-82
2021/12/12 12:53:13;;;;;;;4.93;3.13;;;7.40;99.90;;;;;;5002443;28;20455;-81
2021/12/12 12:56:06;;;;;;;3.23;2.53;;;7.40;99.90;;;;;;4970523;28;20414;-82
2021/12/12 12:58:56;;;;;;;3.63;2.50;;;7.40;99.90;;;;;;4985666;28;20488;-82
2021/12/12 13:01:29;;;;;;;8.30;2.93;;;7.40;99.90;;;;;;4985704;28;20426;-81
2021/12/12 13:04:01;;;;;;;4.20;3.23;;;7.40;99.90;;;;;;5006318;28;20438;-81
2021/12/12 13:07:04;;;;;;;7.70;4.03;;;7.40;99.90;;;;;;4973676;28;20442;-81
2021/12/12 13:09:45;;;;;;;6.13;3.37;;;7.40;99.90;;;;;;4995789;28;20418;-80
2021/12/12 13:12:23;;;;;;;4.93;3.70;;;7.40;99.90;;;;;;4980650;28;20448;-83
2021/12/12 13:15:14;;;;;;;7.10;4.17;;;7.50;99.90;;;;;;4991880;28;20469;-82
2021/12/12 13:18:09;;;;;;;4.73;3.80;;;7.50;99.90;;;;;;5005500;28;20406;-84
2021/12/12 13:21:16;;;;;;;6.03;4.37;;;7.60;99.90;;;;;;5008493;28;20466;-82
2021/12/12 13:24:00;;;;;;;5.73;3.50;;;7.60;99.90;;;;;;4971687;28;20411;-82
2021/12/12 13:26:56;;;;;;;4.37;3.33;;;7.60;99.90;;;;;;4988761;28;20411;-81
2021/12/12 13:29:52;;;;;;;8.63;4.40;;;7.60;99.90;;;;;;4986516;28;20903;-84
2021/12/12 13:32:27;;;;;;;8.97;4.83;;;7.70;99.90;;;;;;4986639;28;20454;-83
2021/12/12 13:35:11;;;;;;;7.60;4.63;;;7.70;99.90;;;;;;4970044;28;20919;-82
2021/12/12 13:37:58;;;;;;;6.40;4.30;;;7.70;99.90;;;;;;4984482;28;20450;-83
2021/12/12 13:40:47;;;;;;;8.03;4.43;;;7.70;99.90;;;;;;4968605;28;20446;-82
2021/12/12 13:43:30;;;;;;;7.10;3.80;;;7.80;99.90;;;;;;4968210;28;20462;-82
2021/12/12 13:46:20;;;;;;;10.40;5.63;;;7.80;99.90;;;;;;4987733;28;20419;-82
2021/12/12 13:49:26;;;;;;;10.47;5.57;;;7.80;99.90;;;;;;4985172;28;20504;-82
2021/12/12 13:52:24;;;;;;;9.40;4.53;;;7.90;99.90;;;;;;4985852;28;20437;-82
2021/12/12 13:55:10;;;;;;;8.37;4.30;;;7.90;99.90;;;;;;4972497;28;20453;-82
2021/12/12 13:58:26;;;;;;;5.97;3.43;;;7.90;99.90;;;;;;4987772;28;20407;-81